Moro Plt, Maine
Current Conditions -  °F | °C
As of 3:53 AM on Wednesday 26 Nov 2014 (Local Time) from KHUL Reporting Station
Clear Clear  
Wind Chill: 33°   Ceiling: Unl
Heat Index: 40°   Visibility: 10mi
Dew Point: 20°   Wind: 12mph
Humidity: 45%   Direction: 280°W
Pressure: 30.05"   Gusts: 22mph
Location:  46.2367°N, 68.3001°W
Report Text: KHUL 260853Z AUTO 28010G19KT 10SM CLR 04/M07 A3005 RMK AO2 PK WND 28027/0841 SLP179 T00441067 51035
Loading
Personal Weather Stations






























Interactive Weather Map New forecast layout! Learn more

10-Day Weather Forecast

Advertisements
Track Severe Weather on mobile